createdAt,value
2023-05-05T04:40:16.424Z,4.37
2023-05-05T04:43:19.979Z,4.70
2023-05-05T04:46:25.667Z,4.87
2023-05-05T04:49:32.393Z,4.65
2023-05-05T04:52:34.987Z,4.30
2023-05-05T04:55:37.466Z,4.37
2023-05-05T04:58:39.972Z,4.20
2023-05-05T05:01:42.583Z,4.55
2023-05-05T05:04:45.301Z,4.78
2023-05-05T05:07:47.810Z,4.07
2023-05-05T05:10:50.364Z,4.05
2023-05-05T05:13:53.284Z,4.07
2023-05-05T05:16:55.789Z,4.20
2023-05-05T05:20:01.455Z,3.90
2023-05-05T05:23:05.444Z,4.12
2023-05-05T05:26:08.052Z,4.95
2023-05-05T05:29:10.638Z,4.85
2023-05-05T05:32:13.204Z,4.28
2023-05-05T05:35:15.866Z,4.80
2023-05-05T05:38:18.406Z,4.32
2023-05-05T05:41:21.745Z,4.20
2023-05-05T05:44:24.667Z,3.50
2023-05-05T05:47:28.231Z,3.25
2023-05-05T05:50:30.902Z,3.33
2023-05-05T05:53:33.537Z,3.05
2023-05-05T05:56:36.110Z,3.83
2023-05-05T05:59:38.655Z,3.22
2023-05-05T06:02:41.318Z,2.35
2023-05-05T06:05:45.814Z,3.30
2023-05-05T06:08:48.322Z,3.28
2023-05-05T06:11:51.546Z,2.90
2023-05-05T06:14:54.417Z,2.90
2023-05-05T06:17:57.135Z,3.10
2023-05-05T06:21:00.365Z,2.83
2023-05-05T06:24:03.040Z,3.03
2023-05-05T06:27:05.701Z,2.80
2023-05-05T06:30:09.852Z,2.75
2023-05-05T06:33:12.648Z,3.40
2023-05-05T06:36:15.798Z,3.03
2023-05-05T06:39:18.683Z,3.20
2023-05-05T06:42:21.325Z,2.70
2023-05-05T06:45:23.817Z,2.67
2023-05-05T06:48:26.361Z,3.30
2023-05-05T06:51:28.876Z,2.72
2023-05-05T06:54:31.392Z,3.12
2023-05-05T06:57:33.881Z,2.70
2023-05-05T07:00:36.403Z,2.55
2023-05-05T07:03:39.177Z,2.83
2023-05-05T07:06:41.672Z,3.08
2023-05-05T07:09:45.204Z,3.17
2023-05-05T07:12:47.976Z,2.92
2023-05-05T07:15:50.596Z,2.97
2023-05-05T07:18:53.157Z,3.05
2023-05-05T07:21:55.744Z,3.15
2023-05-05T07:24:58.287Z,3.15
2023-05-05T07:28:00.860Z,3.28
2023-05-05T07:31:03.394Z,3.50
2023-05-05T07:34:05.893Z,3.30
2023-05-05T07:37:08.464Z,2.95
2023-05-05T07:40:11.564Z,3.03
2023-05-05T07:43:14.946Z,3.28
2023-05-05T07:46:18.062Z,3.50
2023-05-05T07:49:20.952Z,3.22
2023-05-05T07:52:37.049Z,3.55
2023-05-05T07:55:46.506Z,3.40
2023-05-05T07:58:49.071Z,3.12
2023-05-05T08:01:54.276Z,3.30
2023-05-05T08:04:57.454Z,3.20
2023-05-05T08:08:00.200Z,3.70
2023-05-05T08:11:03.147Z,3.33
2023-05-05T08:14:05.694Z,3.60
2023-05-05T08:17:08.671Z,3.47
2023-05-05T08:20:11.879Z,4.15
2023-05-05T08:23:14.378Z,3.20
2023-05-05T08:26:17.019Z,3.20
2023-05-05T08:29:21.219Z,3.58
2023-05-05T08:32:23.982Z,3.33
2023-05-05T08:35:26.662Z,3.17
2023-05-05T08:38:29.217Z,3.90
2023-05-05T08:41:31.747Z,3.95
2023-05-05T08:44:34.348Z,3.45
2023-05-05T08:47:37.172Z,3.30
2023-05-05T08:50:39.931Z,3.80
2023-05-05T08:53:54.591Z,3.50
2023-05-05T08:56:57.253Z,3.95
2023-05-05T08:59:59.813Z,3.97
2023-05-05T09:03:02.514Z,3.87
2023-05-05T09:06:05.316Z,3.75
2023-05-05T09:09:08.314Z,3.83
2023-05-05T09:12:11.739Z,4.30
2023-05-05T09:15:16.540Z,3.80
2023-05-05T09:18:19.113Z,4.00
2023-05-05T09:21:26.088Z,3.90
2023-05-05T09:24:28.607Z,3.62
2023-05-05T09:27:31.160Z,3.25
2023-05-05T09:30:33.795Z,4.07
2023-05-05T09:33:36.404Z,3.42
2023-05-05T09:36:48.464Z,3.78
2023-05-05T09:39:55.169Z,3.80
2023-05-05T09:43:03.899Z,4.00
2023-05-05T09:46:09.723Z,3.35
2023-05-05T09:49:30.802Z,3.47
2023-05-05T09:52:33.374Z,3.55
2023-05-05T09:55:36.260Z,3.60
2023-05-05T09:58:38.936Z,3.85
2023-05-05T10:01:43.554Z,3.97
2023-05-05T10:04:46.273Z,3.45
2023-05-05T10:07:48.867Z,3.47
2023-05-05T10:10:59.775Z,3.25
2023-05-05T10:14:02.695Z,3.00
2023-05-05T10:17:05.780Z,3.47
2023-05-05T10:20:08.907Z,3.12
2023-05-05T10:23:13.433Z,3.17
2023-05-05T10:26:16.049Z,3.08
2023-05-05T10:29:42.493Z,2.80
2023-05-05T10:32:57.332Z,2.78
2023-05-05T10:36:07.817Z,2.70
2023-05-05T10:39:11.290Z,2.70
2023-05-05T10:42:14.062Z,2.78
2023-05-05T10:45:16.777Z,3.00
2023-05-05T10:48:23.371Z,2.55
2023-05-05T10:52:04.190Z,2.55
2023-05-05T10:55:24.712Z,3.20
2023-05-05T10:58:44.097Z,2.70
2023-05-05T11:01:51.392Z,3.30
2023-05-05T11:05:21.471Z,2.92
2023-05-05T11:08:29.724Z,2.72
2023-05-05T11:12:03.752Z,2.78
2023-05-05T11:15:28.435Z,2.97
2023-05-05T11:18:37.874Z,2.92
2023-05-05T11:22:00.055Z,2.90
2023-05-05T11:25:40.939Z,2.90
2023-05-05T11:29:01.119Z,2.92
2023-05-05T11:32:13.910Z,2.85
2023-05-05T11:35:16.652Z,2.80
2023-05-05T11:38:19.231Z,2.85
2023-05-05T11:41:34.218Z,2.95
2023-05-05T11:44:37.792Z,2.40
2023-05-05T11:47:40.494Z,3.00
2023-05-05T11:50:44.203Z,2.80
2023-05-05T11:53:47.795Z,3.20
2023-05-05T11:56:51.412Z,3.15
2023-05-05T12:00:10.995Z,3.03
2023-05-05T12:03:14.307Z,2.67
2023-05-05T12:06:17.054Z,2.55
2023-05-05T12:09:20.923Z,2.53
2023-05-05T12:12:43.790Z,2.60
2023-05-05T12:15:47.317Z,2.70
2023-05-05T12:18:50.152Z,3.10
2023-05-05T12:21:54.833Z,3.03
2023-05-05T12:24:58.424Z,2.60
2023-05-05T12:28:01.011Z,2.62
2023-05-05T12:31:03.838Z,3.00
2023-05-05T12:34:07.340Z,2.80
2023-05-05T12:37:09.890Z,2.80
2023-05-05T12:40:50.111Z,2.80
2023-05-05T12:43:57.241Z,2.55
2023-05-05T12:46:59.945Z,2.83
2023-05-05T12:50:03.440Z,2.92
2023-05-05T12:53:05.955Z,2.72
2023-05-05T12:56:30.140Z,2.80
2023-05-05T12:59:32.638Z,2.40
2023-05-05T13:02:36.770Z,2.47
2023-05-05T13:05:41.440Z,2.50
2023-05-05T13:08:44.119Z,2.90
2023-05-05T13:11:46.808Z,2.58
2023-05-05T13:14:49.383Z,2.30
2023-05-05T13:18:01.137Z,2.40
2023-05-05T13:21:03.910Z,2.12
2023-05-05T13:24:23.018Z,2.60
2023-05-05T13:27:29.511Z,2.75
2023-05-05T13:30:32.130Z,2.95
2023-05-05T13:33:34.966Z,2.10
2023-05-05T13:36:37.753Z,2.50
2023-05-05T13:39:40.551Z,2.50
2023-05-05T13:42:43.163Z,2.47
2023-05-05T13:45:46.096Z,2.58
2023-05-05T13:48:48.734Z,3.22
2023-05-05T13:51:51.337Z,2.20
2023-05-05T13:54:53.887Z,2.53
2023-05-05T13:57:56.468Z,1.77
2023-05-05T14:00:59.035Z,2.50
2023-05-05T14:04:04.536Z,2.50
2023-05-05T14:07:08.144Z,3.00
2023-05-05T14:10:11.053Z,2.40
2023-05-05T14:13:15.511Z,2.47
2023-05-05T14:16:18.183Z,2.53
2023-05-05T14:19:20.808Z,2.20
2023-05-05T14:22:23.426Z,2.75
2023-05-05T14:25:26.006Z,2.67
2023-05-05T14:28:28.674Z,2.50
2023-05-05T14:31:31.304Z,2.35
2023-05-05T14:34:33.884Z,2.53
2023-05-05T14:37:36.513Z,2.40
2023-05-05T14:40:39.072Z,3.10
2023-05-05T14:43:41.725Z,2.40
2023-05-05T14:46:45.980Z,2.30
2023-05-05T14:49:48.908Z,3.00
2023-05-05T14:52:51.495Z,2.45
2023-05-05T14:55:54.057Z,2.10
2023-05-05T14:58:56.698Z,2.35
2023-05-05T15:01:59.401Z,2.65
2023-05-05T15:05:02.136Z,2.67
2023-05-05T15:08:04.833Z,2.30
2023-05-05T15:11:07.455Z,2.78
2023-05-05T15:14:10.032Z,3.17
2023-05-05T15:17:12.624Z,2.20
2023-05-05T15:20:15.162Z,2.58
2023-05-05T15:23:17.726Z,2.78
2023-05-05T15:26:20.284Z,2.60
2023-05-05T15:29:22.870Z,2.35
2023-05-05T15:32:25.586Z,4.68
2023-05-05T15:35:28.232Z,2.25
2023-05-05T15:38:30.836Z,2.72
2023-05-05T15:41:36.146Z,2.40
2023-05-05T15:44:38.751Z,2.58
2023-05-05T15:47:41.458Z,3.00
2023-05-05T15:50:44.120Z,2.53
2023-05-05T15:53:47.326Z,2.62
2023-05-05T15:56:49.806Z,2.33
2023-05-05T15:59:52.748Z,2.50
2023-05-05T16:02:55.298Z,2.58
2023-05-05T16:05:57.997Z,2.95
2023-05-05T16:09:00.644Z,2.70
2023-05-05T16:12:03.381Z,2.33
2023-05-05T16:15:06.739Z,2.50
2023-05-05T16:18:09.460Z,2.30
2023-05-05T16:21:12.439Z,2.83
2023-05-05T16:24:16.701Z,2.45
2023-05-05T16:27:19.586Z,2.17
2023-05-05T16:30:22.153Z,2.62
2023-05-05T16:33:24.782Z,2.78
2023-05-05T16:36:28.025Z,2.50
2023-05-05T16:39:33.035Z,2.60
2023-05-05T16:42:35.665Z,2.67
2023-05-05T16:45:38.232Z,2.30
2023-05-05T16:48:41.193Z,2.95
2023-05-05T16:51:43.731Z,2.25
2023-05-05T16:54:48.095Z,2.40
2023-05-05T16:57:50.637Z,2.37
2023-05-05T17:00:53.625Z,2.40
2023-05-05T17:03:57.557Z,2.30
2023-05-05T17:07:00.112Z,2.72
2023-05-05T17:10:02.722Z,2.53
2023-05-05T17:13:05.269Z,2.72
2023-05-05T17:16:08.019Z,2.60
2023-05-05T17:19:10.697Z,2.70
2023-05-05T17:22:13.300Z,2.70
2023-05-05T17:25:15.980Z,2.58
2023-05-05T17:28:18.580Z,2.75
2023-05-05T17:31:21.236Z,2.83
2023-05-05T17:34:23.754Z,2.80
2023-05-05T17:37:26.349Z,3.15
2023-05-05T17:40:28.995Z,2.95
2023-05-05T17:43:31.543Z,2.80
2023-05-05T17:46:34.047Z,3.00
2023-05-05T17:49:36.579Z,3.80
2023-05-05T17:52:40.517Z,3.60
2023-05-05T17:55:46.288Z,3.60
2023-05-05T17:58:49.105Z,3.30
2023-05-05T18:01:51.742Z,3.10
2023-05-05T18:04:54.331Z,4.00
2023-05-05T18:07:56.943Z,5.00
2023-05-05T18:10:59.505Z,5.70
2023-05-05T18:14:02.027Z,5.28
2023-05-05T18:17:04.990Z,5.47
2023-05-05T18:20:08.143Z,6.15
2023-05-05T18:23:11.318Z,5.78
2023-05-05T18:26:13.931Z,6.03
2023-05-05T18:29:17.454Z,6.18
2023-05-05T18:32:20.125Z,6.53
2023-05-05T18:35:22.719Z,6.12
2023-05-05T18:38:25.378Z,5.47
2023-05-05T18:41:27.956Z,4.95
2023-05-05T18:44:32.825Z,4.72
2023-05-05T18:47:37.516Z,5.05
2023-05-05T18:50:40.136Z,5.15
2023-05-05T18:53:42.676Z,4.37
2023-05-05T18:56:45.260Z,3.62
2023-05-05T18:59:47.839Z,4.80
2023-05-05T19:02:50.467Z,8.60
2023-05-05T19:05:53.000Z,5.78
2023-05-05T19:08:56.860Z,4.85
2023-05-05T19:11:59.540Z,4.87
2023-05-05T19:15:02.170Z,4.10
2023-05-05T19:18:06.519Z,4.97
2023-05-05T19:21:09.144Z,5.28
2023-05-05T19:24:11.824Z,3.83
2023-05-05T19:27:16.635Z,4.60
2023-05-05T19:30:21.807Z,5.72
2023-05-05T19:33:24.385Z,6.70
2023-05-05T19:36:27.902Z,6.53
2023-05-05T19:39:30.506Z,7.43
2023-05-05T19:42:33.083Z,6.30
2023-05-05T19:45:35.684Z,5.85
2023-05-05T19:48:38.301Z,6.43
2023-05-05T19:51:42.093Z,6.45
2023-05-05T19:54:44.633Z,6.28
2023-05-05T19:57:47.370Z,7.00
2023-05-05T20:00:49.883Z,6.60
2023-05-05T20:03:54.522Z,6.57
2023-05-05T20:06:57.455Z,7.85
2023-05-05T20:10:00.857Z,7.57
2023-05-05T20:13:03.518Z,7.25
2023-05-05T20:16:06.670Z,7.70
2023-05-05T20:19:09.260Z,10.15
2023-05-05T20:22:11.781Z,11.57
2023-05-05T20:25:16.313Z,9.68
2023-05-05T20:28:18.918Z,9.35
2023-05-05T20:31:21.624Z,9.15
2023-05-05T20:34:27.904Z,10.40
2023-05-05T20:37:30.420Z,9.07
2023-05-05T20:40:33.817Z,9.10
2023-05-05T20:43:36.944Z,9.05
2023-05-05T20:46:39.564Z,12.57
2023-05-05T20:49:42.179Z,10.50
2023-05-05T20:52:44.717Z,11.12
2023-05-05T20:55:47.263Z,11.07
2023-05-05T20:58:49.866Z,11.35
2023-05-05T21:01:52.438Z,10.23
2023-05-05T21:04:55.063Z,9.70
2023-05-05T21:07:59.214Z,9.82
2023-05-05T21:11:03.322Z,9.82
2023-05-05T21:14:06.170Z,9.63
2023-05-05T21:17:08.737Z,8.13
2023-05-05T21:20:12.308Z,8.13
2023-05-05T21:23:15.172Z,8.57
2023-05-05T21:26:17.687Z,8.52
2023-05-05T21:29:20.283Z,8.43
2023-05-05T21:32:22.911Z,7.95
2023-05-05T21:35:25.570Z,7.75
2023-05-05T21:38:28.154Z,7.62
2023-05-05T21:41:30.885Z,8.02
2023-05-05T21:44:33.552Z,7.70
2023-05-05T21:47:36.236Z,7.55
2023-05-05T21:50:38.878Z,7.32
2023-05-05T21:53:41.479Z,7.43
2023-05-05T21:56:43.997Z,7.75
2023-05-05T21:59:46.752Z,7.68
2023-05-05T22:02:49.499Z,8.00
2023-05-05T22:05:52.378Z,14.60
2023-05-05T22:08:56.742Z,18.92
2023-05-05T22:11:59.414Z,27.00
2023-05-05T22:15:01.938Z,29.08
2023-05-05T22:18:04.784Z,23.77
2023-05-05T22:21:07.364Z,22.62
2023-05-05T22:24:09.999Z,20.40
2023-05-05T22:27:12.529Z,19.42
2023-05-05T22:30:15.155Z,17.85
2023-05-05T22:33:17.684Z,16.17
2023-05-05T22:36:20.307Z,16.83
2023-05-05T22:39:23.839Z,16.10
2023-05-05T22:42:26.958Z,15.73
2023-05-05T22:45:29.587Z,12.40
2023-05-05T22:48:32.294Z,13.27
2023-05-05T22:51:35.295Z,10.52
2023-05-05T22:54:37.864Z,9.60
2023-05-05T22:57:40.541Z,11.25
2023-05-05T23:00:43.310Z,7.12
2023-05-05T23:03:46.463Z,6.82
2023-05-05T23:06:49.039Z,6.68
2023-05-05T23:09:51.631Z,7.35
2023-05-05T23:12:54.242Z,6.65
2023-05-05T23:15:56.842Z,6.28
2023-05-05T23:18:59.376Z,6.25
2023-05-05T23:22:02.505Z,6.05
2023-05-05T23:25:05.350Z,6.22
2023-05-05T23:28:07.854Z,5.40
2023-05-05T23:31:10.533Z,6.20
2023-05-05T23:34:13.935Z,5.72
2023-05-05T23:37:16.476Z,5.80
2023-05-05T23:40:19.285Z,5.65
2023-05-05T23:43:21.917Z,5.60
2023-05-05T23:46:24.489Z,5.20
2023-05-05T23:49:27.054Z,5.65
2023-05-05T23:52:29.618Z,5.37
2023-05-05T23:55:32.286Z,5.65
2023-05-05T23:58:34.851Z,5.68
